Flight Track Log - Related Links

Times and Time Zones

All times are in EDT time to prevent confusion due to time zone crossing. See the N47498 flight status page for this flight to view local times or setup timezone preferences in your user account.

Time Position Orientation Groundspeed Altitude Reporting Facility
EDT Latitude Longitude Course Direction KTS MPH feet Rate Location/Type
Sun 04:25:15 PM 38.5106 -78.7731 28° Northeast 116 133 5,600  Level Washington Center
Sun 04:26:16 PM 38.5361 -78.7556 28° Northeast 105 121 6,200 605 Climbing Washington Center
Sun 04:27:14 PM 38.5597 -78.7353 34° Northeast 99 114 6,800 403 Climbing Washington Center
Sun 04:28:15 PM 38.5792 -78.7069 49° Northeast 94 108 7,000 99 Climbing Washington Center
Sun 04:29:15 PM 38.6011 -78.6653 56° Northeast 111 128 7,000  Level Washington Center
Sun 04:30:16 PM 38.6250 -78.6264 52° Northeast 126 145 7,000  Level Washington Center
Sun 04:31:16 PM 38.6467 -78.5900 53° Northeast 126 145 7,000  Level Washington Center
Sun 04:32:14 PM 38.6747 -78.5567 43° Northeast 126 145 7,000 -50 Level Washington Center
Sun 04:33:15 PM 38.6983 -78.5231 48° Northeast 126 145 6,900 -49 Descending Washington Center
Sun 04:34:16 PM 38.7222 -78.4842 52° Northeast 132 152 6,900  Level Washington Center
Sun 04:35:17 PM 38.7519 -78.4586 34° Northeast 127 146 6,900  Level Washington Center
Sun 04:36:15 PM 38.7819 -78.4278 39° Northeast 127 146 6,900  Level Washington Center
Sun 04:37:16 PM 38.8136 -78.4078 26° Northeast 127 146 6,900  Level Washington Center
Sun 04:38:17 PM 38.8436 -78.3769 39° Northeast 127 146 6,900  Level Washington Center
Sun 04:39:14 PM 38.8756 -78.3489 34° Northeast 127 146 6,900  Level Washington Center
Sun 04:40:15 PM 38.9053 -78.3258 31° Northeast 127 146 6,900 49 Level Washington Center
Sun 04:41:16 PM 38.9369 -78.3031 29° Northeast 127 146 7,000 50 Climbing Washington Center
Sun 04:42:14 PM 38.9650 -78.2719 41° Northeast 122 140 7,000  Level Washington Center
Sun 04:43:14 PM 38.9906 -78.2383 46° Northeast 122 140 7,000 -37 Level Washington Center
Sun 04:44:58 PM 39.0333 -78.1833 45° Northeast 143 165 6,900 -37 Descending Potomac TRACON
Sun 04:45:58 PM 39.0667 -78.1333 49° Northeast 141 162 6,900  Level Potomac TRACON
Sun 04:46:58 PM 39.0833 -78.1000 57° Northeast 136 157 6,900  Level Potomac TRACON
Sun 04:47:53 PM 39.1167 -78.0667 38° Northeast 141 162 6,900 -52 Level Potomac TRACON
Sun 04:48:53 PM 39.1500 -78.0500 21° North 142 163 6,800 -50 Descending Potomac TRACON
Sun 04:49:54 PM 39.1833 -78.0167 38° Northeast 141 162 6,800 50 Level Potomac TRACON
Sun 04:50:54 PM 39.2167 -78.0000 21° North 143 165 6,900 50 Climbing Potomac TRACON
Sun 04:51:54 PM 39.2500 -77.9667 38° Northeast 142 163 6,900  Level Potomac TRACON
Sun 04:52:55 PM 39.2667 -77.9333 57° Northeast 139 160 6,900  Level Potomac TRACON
Sun 04:53:55 PM 39.3000 -77.9000 38° Northeast 137 158 6,900 50 Level Potomac TRACON
Sun 04:54:56 PM 39.3333 -77.8833 21° North 138 159 7,000 47 Climbing Potomac TRACON
Sun 04:56:02 PM 39.3667 -77.8500 38° Northeast 139 160 7,000 -50 Level Potomac TRACON
Sun 04:56:56 PM 39.3833 -77.8167 57° Northeast 152 175 6,900 -52 Descending Potomac TRACON
Sun 04:57:57 PM 39.4000 -77.7667 67° East 148 170 6,900 50 Level Potomac TRACON
Sun 04:58:57 PM 39.4000 -77.7167 90° East 138 159 7,000 -149 Climbing Potomac TRACON
Sun 04:59:58 PM 39.4167 -77.6667 67° East 148 170 6,600 -443 Descending Potomac TRACON
Sun 05:00:59 PM 39.4333 -77.6167 67° East 152 175 6,100 -545 Descending Potomac TRACON
Sun 05:01:59 PM 39.4333 -77.5500 90° East 155 178 5,500 -550 Descending Potomac TRACON
Sun 05:02:59 PM 39.4333 -77.5000 90° East 153 176 5,000 -298 Descending Potomac TRACON
Sun 05:04:00 PM 39.4333 -77.4500 90° East 146 168 4,900 -50 Descending Potomac TRACON
Sun 05:05:00 PM 39.4333 -77.4000 90° East 136 157 4,900  Level Potomac TRACON
Sun 05:06:01 PM 39.4333 -77.3500 90° East 132 152 4,900  Level Potomac TRACON
Sun 05:07:01 PM 39.4333 -77.3000 90° East 133 153 4,900 -300 Level Potomac TRACON
Sun 05:08:01 PM 39.4333 -77.2500 90° East 149 171 4,300 -694 Descending Potomac TRACON
Sun 05:09:02 PM 39.4167 -77.2000 113° Southeast 158 182 3,500 -496 Descending Potomac TRACON
Sun 05:10:02 PM 39.4000 -77.1500 113° Southeast 139 160 3,300 -50 Descending Potomac TRACON
Sun 05:11:03 PM 39.4000 -77.1000 90° East 132 152 3,400 99 Climbing Potomac TRACON
Sun 05:12:03 PM 39.4000 -77.0500 90° East 131 151 3,500 50 Climbing Potomac TRACON
Sun 05:13:03 PM 39.4000 -77.0000 90° East 130 150 3,500 -50 Level Potomac TRACON
Sun 05:14:04 PM 39.3833 -76.9667 123° Southeast 135 155 3,400 -446 Descending Potomac TRACON
Sun 05:15:04 PM 39.3833 -76.9000 90° East 151 174 2,600 -600 Descending Potomac TRACON
Sun 05:16:04 PM 39.3833 -76.8667 90° East 137 158 2,200 -397 Descending Potomac TRACON
Sun 05:17:05 PM 39.3833 -76.8167 90° East 138 159 1,800 -149 Descending Potomac TRACON
Sun 05:18:05 PM 39.3833 -76.7667 90° East 134 154 1,900 50 Climbing Potomac TRACON
Sun 05:19:06 PM 39.3833 -76.7167 90° East 131 151 1,900  Level Potomac TRACON
Sun 05:20:00 PM 39.3833 -76.6667 90° East 130 150 1,900 -157 Level Potomac TRACON
Sun 05:21:01 PM 39.3667 -76.6167 113° Southeast 140 161 1,600 -295 Descending Potomac TRACON

Login

Don't have an account? Register now (free) for customized features, flight alerts, and more!